sensor_id;sensor_type;location;lat;lon;timestamp;pressure;altitude;pressure_sealevel;temperature;humidity
9421;BME280;4749;51.398;5.466;2023-08-01T00:01:09;99780.38;;;17.99;100.00
9421;BME280;4749;51.398;5.466;2023-08-01T00:03:37;99776.81;;;18.00;100.00
9421;BME280;4749;51.398;5.466;2023-08-01T00:06:04;99789.19;;;18.01;100.00
9421;BME280;4749;51.398;5.466;2023-08-01T00:08:31;99783.88;;;18.01;100.00
9421;BME280;4749;51.398;5.466;2023-08-01T00:10:58;99782.06;;;18.02;100.00
9421;BME280;4749;51.398;5.466;2023-08-01T00:13:25;99775.81;;;18.03;100.00
9421;BME280;4749;51.398;5.466;2023-08-01T00:15:52;99773.31;;;17.99;100.00
9421;BME280;4749;51.398;5.466;2023-08-01T00:18:33;99785.00;;;17.95;100.00
9421;BME280;4749;51.398;5.466;2023-08-01T00:21:02;99781.56;;;17.93;100.00
9421;BME280;4749;51.398;5.466;2023-08-01T00:23:29;99777.16;;;17.92;100.00
9421;BME280;4749;51.398;5.466;2023-08-01T00:25:56;99787.81;;;17.92;100.00
9421;BME280;4749;51.398;5.466;2023-08-01T00:28:23;99775.47;;;17.90;100.00
9421;BME280;4749;51.398;5.466;2023-08-01T00:30:50;99778.38;;;17.85;100.00
9421;BME280;4749;51.398;5.466;2023-08-01T00:33:17;99765.25;;;17.81;100.00
9421;BME280;4749;51.398;5.466;2023-08-01T00:35:44;99775.19;;;17.77;100.00
9421;BME280;4749;51.398;5.466;2023-08-01T00:38:11;99774.44;;;17.73;100.00
9421;BME280;4749;51.398;5.466;2023-08-01T00:40:38;99766.59;;;17.70;100.00
9421;BME280;4749;51.398;5.466;2023-08-01T00:43:05;99771.16;;;17.67;100.00
9421;BME280;4749;51.398;5.466;2023-08-01T00:45:32;99771.28;;;17.64;100.00
9421;BME280;4749;51.398;5.466;2023-08-01T00:47:59;99771.34;;;17.62;100.00
9421;BME280;4749;51.398;5.466;2023-08-01T00:50:27;99766.97;;;17.61;100.00
9421;BME280;4749;51.398;5.466;2023-08-01T00:52:54;99768.75;;;17.61;100.00
9421;BME280;4749;51.398;5.466;2023-08-01T00:55:22;99768.91;;;17.58;100.00
9421;BME280;4749;51.398;5.466;2023-08-01T00:57:50;99769.88;;;17.55;100.00
9421;BME280;4749;51.398;5.466;2023-08-01T01:00:18;99764.84;;;17.49;100.00
9421;BME280;4749;51.398;5.466;2023-08-01T01:02:46;99759.66;;;17.46;100.00
9421;BME280;4749;51.398;5.466;2023-08-01T01:05:14;99756.34;;;17.41;100.00
9421;BME280;4749;51.398;5.466;2023-08-01T01:07:42;99759.25;;;17.35;100.00
9421;BME280;4749;51.398;5.466;2023-08-01T01:10:10;99747.16;;;17.28;100.00
9421;BME280;4749;51.398;5.466;2023-08-01T01:12:37;99759.72;;;17.24;100.00
9421;BME280;4749;51.398;5.466;2023-08-01T01:15:05;99754.56;;;17.20;100.00
9421;BME280;4749;51.398;5.466;2023-08-01T01:17:33;99759.19;;;17.14;100.00
9421;BME280;4749;51.398;5.466;2023-08-01T01:20:00;99749.78;;;17.07;100.00
9421;BME280;4749;51.398;5.466;2023-08-01T01:22:27;99758.00;;;17.01;100.00
9421;BME280;4749;51.398;5.466;2023-08-01T01:24:56;99752.84;;;16.97;100.00
9421;BME280;4749;51.398;5.466;2023-08-01T01:27:25;99752.19;;;16.92;100.00
9421;BME280;4749;51.398;5.466;2023-08-01T01:29:54;99755.03;;;16.87;100.00
9421;BME280;4749;51.398;5.466;2023-08-01T01:32:22;99759.59;;;16.83;100.00
9421;BME280;4749;51.398;5.466;2023-08-01T01:34:50;99757.97;;;16.79;100.00
9421;BME280;4749;51.398;5.466;2023-08-01T01:37:18;99744.84;;;16.76;100.00
9421;BME280;4749;51.398;5.466;2023-08-01T01:39:45;99741.50;;;16.71;100.00
9421;BME280;4749;51.398;5.466;2023-08-01T01:42:12;99734.53;;;16.69;100.00
9421;BME280;4749;51.398;5.466;2023-08-01T01:44:40;99746.16;;;16.65;100.00
9421;BME280;4749;51.398;5.466;2023-08-01T01:47:07;99746.22;;;16.63;100.00
9421;BME280;4749;51.398;5.466;2023-08-01T01:49:34;99752.38;;;16.64;100.00
9421;BME280;4749;51.398;5.466;2023-08-01T01:52:01;99754.06;;;16.66;100.00
9421;BME280;4749;51.398;5.466;2023-08-01T01:54:28;99749.53;;;16.70;100.00
9421;BME280;4749;51.398;5.466;2023-08-01T01:56:55;99756.56;;;16.71;100.00
9421;BME280;4749;51.398;5.466;2023-08-01T01:59:22;99754.78;;;16.71;100.00
9421;BME280;4749;51.398;5.466;2023-08-01T02:01:49;99750.41;;;16.70;100.00
9421;BME280;4749;51.398;5.466;2023-08-01T02:04:16;99749.56;;;16.68;100.00
9421;BME280;4749;51.398;5.466;2023-08-01T02:06:43;99743.63;;;16.61;100.00
9421;BME280;4749;51.398;5.466;2023-08-01T02:09:10;99746.41;;;16.58;100.00
9421;BME280;4749;51.398;5.466;2023-08-01T02:11:37;99750.16;;;16.53;100.00
9421;BME280;4749;51.398;5.466;2023-08-01T02:14:04;99747.56;;;16.51;100.00
9421;BME280;4749;51.398;5.466;2023-08-01T02:16:32;99745.06;;;16.48;100.00
9421;BME280;4749;51.398;5.466;2023-08-01T02:18:59;99746.13;;;16.43;100.00
9421;BME280;4749;51.398;5.466;2023-08-01T02:21:26;99749.78;;;16.40;100.00
9421;BME280;4749;51.398;5.466;2023-08-01T02:23:53;99745.50;;;16.36;100.00
9421;BME280;4749;51.398;5.466;2023-08-01T02:26:20;99750.06;;;16.32;100.00
9421;BME280;4749;51.398;5.466;2023-08-01T02:28:50;99749.31;;;16.29;100.00
9421;BME280;4749;51.398;5.466;2023-08-01T02:31:17;99748.44;;;16.28;100.00
9421;BME280;4749;51.398;5.466;2023-08-01T02:33:44;99747.66;;;16.26;100.00
9421;BME280;4749;51.398;5.466;2023-08-01T02:36:11;99751.16;;;16.27;100.00
9421;BME280;4749;51.398;5.466;2023-08-01T02:38:38;99754.69;;;16.27;100.00
9421;BME280;4749;51.398;5.466;2023-08-01T02:41:05;99759.97;;;16.27;100.00
9421;BME280;4749;51.398;5.466;2023-08-01T02:43:32;99766.16;;;16.28;100.00
9421;BME280;4749;51.398;5.466;2023-08-01T02:46:02;99763.44;;;16.29;100.00
9421;BME280;4749;51.398;5.466;2023-08-01T02:48:29;99777.53;;;16.31;100.00
9421;BME280;4749;51.398;5.466;2023-08-01T02:50:56;99773.94;;;16.32;100.00
9421;BME280;4749;51.398;5.466;2023-08-01T02:53:23;99778.25;;;16.35;100.00
9421;BME280;4749;51.398;5.466;2023-08-01T02:55:51;99774.69;;;16.36;100.00
9421;BME280;4749;51.398;5.466;2023-08-01T02:58:18;99773.75;;;16.37;100.00
9421;BME280;4749;51.398;5.466;2023-08-01T03:00:45;99771.91;;;16.39;100.00
9421;BME280;4749;51.398;5.466;2023-08-01T03:03:14;99766.59;;;16.39;100.00
9421;BME280;4749;51.398;5.466;2023-08-01T03:05:42;99772.81;;;16.38;100.00
9421;BME280;4749;51.398;5.466;2023-08-01T03:08:09;99775.44;;;16.40;100.00
9421;BME280;4749;51.398;5.466;2023-08-01T03:10:36;99771.88;;;16.41;100.00
9421;BME280;4749;51.398;5.466;2023-08-01T03:13:03;99778.84;;;16.43;100.00
9421;BME280;4749;51.398;5.466;2023-08-01T03:15:31;99780.56;;;16.44;100.00
9421;BME280;4749;51.398;5.466;2023-08-01T03:17:58;99769.94;;;16.44;100.00
9421;BME280;4749;51.398;5.466;2023-08-01T03:20:25;99769.03;;;16.45;100.00
9421;BME280;4749;51.398;5.466;2023-08-01T03:22:52;99764.66;;;16.44;100.00
9421;BME280;4749;51.398;5.466;2023-08-01T03:25:20;99774.41;;;16.44;100.00
9421;BME280;4749;51.398;5.466;2023-08-01T03:27:47;99771.69;;;16.45;100.00
9421;BME280;4749;51.398;5.466;2023-08-01T03:30:14;99765.56;;;16.43;100.00
9421;BME280;4749;51.398;5.466;2023-08-01T03:32:41;99765.56;;;16.43;100.00
9421;BME280;4749;51.398;5.466;2023-08-01T03:35:08;99767.28;;;16.44;100.00
9421;BME280;4749;51.398;5.466;2023-08-01T03:37:35;99776.91;;;16.47;100.00
9421;BME280;4749;51.398;5.466;2023-08-01T03:40:03;99780.41;;;16.49;100.00
9421;BME280;4749;51.398;5.466;2023-08-01T03:42:30;99779.47;;;16.50;100.00
9421;BME280;4749;51.398;5.466;2023-08-01T03:44:57;99783.00;;;16.50;100.00
9421;BME280;4749;51.398;5.466;2023-08-01T03:47:24;99785.63;;;16.50;100.00
9421;BME280;4749;51.398;5.466;2023-08-01T03:49:51;99780.22;;;16.53;100.00
9421;BME280;4749;51.398;5.466;2023-08-01T03:52:18;99780.09;;;16.56;100.00
9421;BME280;4749;51.398;5.466;2023-08-01T03:54:46;99775.75;;;16.54;100.00
9421;BME280;4749;51.398;5.466;2023-08-01T03:57:13;99773.91;;;16.56;100.00
9421;BME280;4749;51.398;5.466;2023-08-01T03:59:41;99775.66;;;16.57;100.00
9421;BME280;4749;51.398;5.466;2023-08-01T04:02:09;99789.03;;;16.54;100.00
9421;BME280;4749;51.398;5.466;2023-08-01T04:04:36;99781.13;;;16.52;100.00
9421;BME280;4749;51.398;5.466;2023-08-01T04:07:03;99781.13;;;16.52;100.00
9421;BME280;4749;51.398;5.466;2023-08-01T04:09:31;99783.78;;;16.52;100.00
9421;BME280;4749;51.398;5.466;2023-08-01T04:11:58;99785.50;;;16.53;100.00
9421;BME280;4749;51.398;5.466;2023-08-01T04:14:25;99775.75;;;16.54;100.00
9421;BME280;4749;51.398;5.466;2023-08-01T04:16:52;99782.00;;;16.53;100.00
9421;BME280;4749;51.398;5.466;2023-08-01T04:19:19;99778.41;;;16.54;100.00
9421;BME280;4749;51.398;5.466;2023-08-01T04:21:46;99779.34;;;16.53;100.00
9421;BME280;4749;51.398;5.466;2023-08-01T04:24:13;99780.22;;;16.53;100.00
9421;BME280;4749;51.398;5.466;2023-08-01T04:26:40;99786.38;;;16.54;100.00
9421;BME280;4749;51.398;5.466;2023-08-01T04:29:08;99782.84;;;16.53;100.00
9421;BME280;4749;51.398;5.466;2023-08-01T04:31:35;99782.78;;;16.55;100.00
9421;BME280;4749;51.398;5.466;2023-08-01T04:34:02;99778.34;;;16.55;100.00
9421;BME280;4749;51.398;5.466;2023-08-01T04:36:29;99779.19;;;16.57;100.00
9421;BME280;4749;51.398;5.466;2023-08-01T04:38:56;99772.88;;;16.60;100.00
9421;BME280;4749;51.398;5.466;2023-08-01T04:41:23;99773.81;;;16.59;100.00
9421;BME280;4749;51.398;5.466;2023-08-01T04:43:51;99778.13;;;16.61;100.00
9421;BME280;4749;51.398;5.466;2023-08-01T04:46:18;99769.22;;;16.63;100.00
9421;BME280;4749;51.398;5.466;2023-08-01T04:48:45;99777.00;;;16.69;100.00
9421;BME280;4749;51.398;5.466;2023-08-01T04:51:12;99779.50;;;16.72;100.00
9421;BME280;4749;51.398;5.466;2023-08-01T04:53:39;99783.03;;;16.72;100.00
9421;BME280;4749;51.398;5.466;2023-08-01T04:56:06;99793.47;;;16.77;100.00
9421;BME280;4749;51.398;5.466;2023-08-01T04:58:33;99796.00;;;16.80;100.00
9421;BME280;4749;51.398;5.466;2023-08-01T05:01:00;99797.69;;;16.82;100.00
9421;BME280;4749;51.398;5.466;2023-08-01T05:03:27;99795.53;;;16.92;100.00
9421;BME280;4749;51.398;5.466;2023-08-01T05:05:54;99806.88;;;16.96;100.00
9421;BME280;4749;51.398;5.466;2023-08-01T05:08:21;99798.53;;;17.05;100.00
9421;BME280;4749;51.398;5.466;2023-08-01T05:10:48;99795.28;;;17.20;100.00
9421;BME280;4749;51.398;5.466;2023-08-01T05:13:16;99794.56;;;17.16;100.00
9421;BME280;4749;51.398;5.466;2023-08-01T05:15:46;99794.72;;;17.12;100.00
9421;BME280;4749;51.398;5.466;2023-08-01T05:18:16;99795.78;;;17.08;100.00
9421;BME280;4749;51.398;5.466;2023-08-01T05:20:43;99797.31;;;17.13;100.00
9421;BME280;4749;51.398;5.466;2023-08-01T05:23:10;99796.63;;;17.30;100.00
9421;BME280;4749;51.398;5.466;2023-08-01T05:25:38;99792.28;;;17.50;100.00
9421;BME280;4749;51.398;5.466;2023-08-01T05:28:05;99805.56;;;17.50;100.00
9421;BME280;4749;51.398;5.466;2023-08-01T05:30:32;99797.16;;;17.38;100.00
9421;BME280;4749;51.398;5.466;2023-08-01T05:32:59;99799.41;;;17.27;100.00
9421;BME280;4749;51.398;5.466;2023-08-01T05:35:27;99796.13;;;17.21;100.00
9421;BME280;4749;51.398;5.466;2023-08-01T05:37:54;99795.81;;;17.28;100.00
9421;BME280;4749;51.398;5.466;2023-08-01T05:40:21;99799.75;;;17.40;100.00
9421;BME280;4749;51.398;5.466;2023-08-01T05:42:48;99804.34;;;17.57;100.00
9421;BME280;4749;51.398;5.466;2023-08-01T05:45:15;99803.00;;;17.68;100.00
9421;BME280;4749;51.398;5.466;2023-08-01T05:47:42;99798.97;;;17.80;100.00
9421;BME280;4749;51.398;5.466;2023-08-01T05:50:10;99804.94;;;17.85;100.00
9421;BME280;4749;51.398;5.466;2023-08-01T05:52:37;99806.22;;;18.16;100.00
9421;BME280;4749;51.398;5.466;2023-08-01T05:55:05;99801.03;;;18.33;100.00
9421;BME280;4749;51.398;5.466;2023-08-01T05:57:32;99804.00;;;18.46;100.00
9421;BME280;4749;51.398;5.466;2023-08-01T05:59:59;99800.13;;;18.53;100.00
9421;BME280;4749;51.398;5.466;2023-08-01T06:02:27;99802.72;;;18.73;100.00
9421;BME280;4749;51.398;5.466;2023-08-01T06:04:54;99808.47;;;19.02;100.00
9421;BME280;4749;51.398;5.466;2023-08-01T06:07:21;99797.00;;;19.19;100.00
9421;BME280;4749;51.398;5.466;2023-08-01T06:09:50;99800.56;;;19.36;100.00
9421;BME280;4749;51.398;5.466;2023-08-01T06:12:21;99796.09;;;19.54;100.00
9421;BME280;4749;51.398;5.466;2023-08-01T06:14:48;99796.50;;;19.81;100.00
9421;BME280;4749;51.398;5.466;2023-08-01T06:17:15;99800.25;;;20.12;100.00
9421;BME280;4749;51.398;5.466;2023-08-01T06:19:42;99797.66;;;20.10;100.00
9421;BME280;4749;51.398;5.466;2023-08-01T06:22:09;99790.19;;;20.00;100.00
9421;BME280;4749;51.398;5.466;2023-08-01T06:24:37;99802.69;;;19.82;100.00
9421;BME280;4749;51.398;5.466;2023-08-01T06:27:04;99802.78;;;19.63;100.00
9421;BME280;4749;51.398;5.466;2023-08-01T06:29:32;99802.44;;;19.52;100.00
9421;BME280;4749;51.398;5.466;2023-08-01T06:31:59;99801.81;;;19.47;100.00
9421;BME280;4749;51.398;5.466;2023-08-01T06:34:26;99799.06;;;19.48;100.00
9421;BME280;4749;51.398;5.466;2023-08-01T06:36:53;99796.91;;;19.56;100.00
9421;BME280;4749;51.398;5.466;2023-08-01T06:39:20;99805.69;;;19.76;100.00
9421;BME280;4749;51.398;5.466;2023-08-01T06:41:47;99810.97;;;19.77;100.00
9421;BME280;4749;51.398;5.466;2023-08-01T06:44:15;99814.41;;;19.79;100.00
9421;BME280;4749;51.398;5.466;2023-08-01T06:46:42;99808.13;;;19.63;100.00
9421;BME280;4749;51.398;5.466;2023-08-01T06:49:09;99815.59;;;19.37;100.00
9421;BME280;4749;51.398;5.466;2023-08-01T06:51:36;99809.75;;;19.12;100.00
9421;BME280;4749;51.398;5.466;2023-08-01T06:54:04;99812.56;;;18.90;100.00
9421;BME280;4749;51.398;5.466;2023-08-01T06:56:31;99820.00;;;18.83;100.00
9421;BME280;4749;51.398;5.466;2023-08-01T06:58:58;99815.94;;;19.12;100.00
9421;BME280;4749;51.398;5.466;2023-08-01T07:01:25;99820.06;;;19.37;100.00
9421;BME280;4749;51.398;5.466;2023-08-01T07:03:53;99813.16;;;19.69;100.00
9421;BME280;4749;51.398;5.466;2023-08-01T07:06:20;99813.38;;;19.82;100.00
9421;BME280;4749;51.398;5.466;2023-08-01T07:08:48;99814.59;;;20.09;100.00
9421;BME280;4749;51.398;5.466;2023-08-01T07:11:15;99820.69;;;20.29;100.00
9421;BME280;4749;51.398;5.466;2023-08-01T07:13:42;99816.97;;;20.48;100.00
9421;BME280;4749;51.398;5.466;2023-08-01T07:16:09;99817.88;;;20.80;100.00
9421;BME280;4749;51.398;5.466;2023-08-01T07:18:36;99816.41;;;21.06;100.00
9421;BME280;4749;51.398;5.466;2023-08-01T07:21:04;99808.50;;;21.05;100.00
9421;BME280;4749;51.398;5.466;2023-08-01T07:23:33;99816.94;;;20.82;100.00
9421;BME280;4749;51.398;5.466;2023-08-01T07:26:02;99825.88;;;20.65;100.00
9421;BME280;4749;51.398;5.466;2023-08-01T07:28:29;99813.56;;;20.78;100.00
9421;BME280;4749;51.398;5.466;2023-08-01T07:31:03;99815.56;;;21.06;100.00
9421;BME280;4749;51.398;5.466;2023-08-01T07:33:35;99815.97;;;21.14;100.00
9421;BME280;4749;51.398;5.466;2023-08-01T07:36:02;99813.47;;;21.27;100.00
9421;BME280;4749;51.398;5.466;2023-08-01T07:38:30;99818.69;;;21.60;100.00
9421;BME280;4749;51.398;5.466;2023-08-01T07:41:04;99818.91;;;21.41;100.00
9421;BME280;4749;51.398;5.466;2023-08-01T07:43:31;99826.22;;;21.53;100.00
9421;BME280;4749;51.398;5.466;2023-08-01T07:45:59;99843.94;;;21.70;100.00
9421;BME280;4749;51.398;5.466;2023-08-01T07:48:27;99839.41;;;21.86;100.00
9421;BME280;4749;51.398;5.466;2023-08-01T07:50:54;99829.44;;;21.74;100.00
9421;BME280;4749;51.398;5.466;2023-08-01T07:53:21;99832.44;;;21.54;100.00
9421;BME280;4749;51.398;5.466;2023-08-01T07:55:48;99834.94;;;21.87;100.00
9421;BME280;4749;51.398;5.466;2023-08-01T07:58:16;99828.41;;;22.35;100.00
9421;BME280;4749;51.398;5.466;2023-08-01T08:00:43;99833.19;;;22.16;100.00
9421;BME280;4749;51.398;5.466;2023-08-01T08:03:10;99840.81;;;21.78;100.00
9421;BME280;4749;51.398;5.466;2023-08-01T08:05:37;99834.50;;;21.49;100.00
9421;BME280;4749;51.398;5.466;2023-08-01T08:08:05;99832.53;;;21.21;100.00
9421;BME280;4749;51.398;5.466;2023-08-01T08:10:33;99831.41;;;20.93;100.00
9421;BME280;4749;51.398;5.466;2023-08-01T08:13:00;99835.19;;;21.21;100.00
9421;BME280;4749;51.398;5.466;2023-08-01T08:15:27;99833.56;;;21.34;100.00
9421;BME280;4749;51.398;5.466;2023-08-01T08:17:54;99833.72;;;21.15;100.00
9421;BME280;4749;51.398;5.466;2023-08-01T08:20:21;99834.00;;;20.95;100.00
9421;BME280;4749;51.398;5.466;2023-08-01T08:22:48;99835.38;;;20.70;100.00
9421;BME280;4749;51.398;5.466;2023-08-01T08:25:16;99842.81;;;20.48;100.00
9421;BME280;4749;51.398;5.466;2023-08-01T08:27:43;99842.31;;;20.40;100.00
9421;BME280;4749;51.398;5.466;2023-08-01T08:30:10;99838.50;;;20.45;100.00
9421;BME280;4749;51.398;5.466;2023-08-01T08:32:38;99840.09;;;20.65;100.00
9421;BME280;4749;51.398;5.466;2023-08-01T08:35:05;99832.69;;;21.02;100.00
9421;BME280;4749;51.398;5.466;2023-08-01T08:37:32;99832.09;;;21.44;100.00
9421;BME280;4749;51.398;5.466;2023-08-01T08:39:59;99841.28;;;21.70;100.00
9421;BME280;4749;51.398;5.466;2023-08-01T08:42:26;99847.44;;;21.86;100.00
9421;BME280;4749;51.398;5.466;2023-08-01T08:44:55;99838.84;;;21.96;100.00
9421;BME280;4749;51.398;5.466;2023-08-01T08:47:25;99840.19;;;22.03;100.00
9421;BME280;4749;51.398;5.466;2023-08-01T08:49:57;99842.25;;;22.13;100.00
9421;BME280;4749;51.398;5.466;2023-08-01T08:52:25;99855.94;;;22.23;100.00
9421;BME280;4749;51.398;5.466;2023-08-01T08:54:53;99848.72;;;22.54;100.00
9421;BME280;4749;51.398;5.466;2023-08-01T08:57:21;99833.75;;;22.78;100.00
9421;BME280;4749;51.398;5.466;2023-08-01T08:59:49;99844.75;;;22.73;100.00
9421;BME280;4749;51.398;5.466;2023-08-01T09:02:18;99839.44;;;22.88;100.00
9421;BME280;4749;51.398;5.466;2023-08-01T09:04:45;99831.88;;;23.21;100.00
9421;BME280;4749;51.398;5.466;2023-08-01T09:07:14;99840.38;;;23.55;100.00
9421;BME280;4749;51.398;5.466;2023-08-01T09:09:42;99847.16;;;23.61;100.00
9421;BME280;4749;51.398;5.466;2023-08-01T09:12:09;99841.03;;;23.58;100.00
9421;BME280;4749;51.398;5.466;2023-08-01T09:14:37;99846.03;;;23.50;100.00
9421;BME280;4749;51.398;5.466;2023-08-01T09:17:08;99838.56;;;23.55;100.00
9421;BME280;4749;51.398;5.466;2023-08-01T09:19:36;99852.16;;;23.52;100.00
9421;BME280;4749;51.398;5.466;2023-08-01T09:22:13;99853.16;;;23.37;100.00
9421;BME280;4749;51.398;5.466;2023-08-01T09:24:52;99848.25;;;23.44;100.00
9421;BME280;4749;51.398;5.466;2023-08-01T09:27:21;99850.44;;;23.51;100.00
9421;BME280;4749;51.398;5.466;2023-08-01T09:29:49;99856.06;;;23.61;100.00
9421;BME280;4749;51.398;5.466;2023-08-01T09:32:17;99853.41;;;23.61;100.00
9421;BME280;4749;51.398;5.466;2023-08-01T09:34:44;99858.47;;;23.66;100.00
9421;BME280;4749;51.398;5.466;2023-08-01T09:37:12;99867.00;;;23.58;100.00
9421;BME280;4749;51.398;5.466;2023-08-01T09:39:39;99867.53;;;23.36;100.00
9421;BME280;4749;51.398;5.466;2023-08-01T09:42:07;99878.81;;;23.14;100.00
9421;BME280;4749;51.398;5.466;2023-08-01T09:44:35;99869.06;;;23.13;100.00
9421;BME280;4749;51.398;5.466;2023-08-01T09:47:05;99869.63;;;23.45;100.00
9421;BME280;4749;51.398;5.466;2023-08-01T09:49:34;99870.81;;;23.68;100.00
9421;BME280;4749;51.398;5.466;2023-08-01T09:52:03;99876.31;;;23.79;100.00
9421;BME280;4749;51.398;5.466;2023-08-01T09:54:30;99870.88;;;23.81;100.00
9421;BME280;4749;51.398;5.466;2023-08-01T09:56:58;99876.88;;;23.84;100.00
9421;BME280;4749;51.398;5.466;2023-08-01T09:59:26;99861.50;;;23.74;100.00
9421;BME280;4749;51.398;5.466;2023-08-01T10:01:54;99868.44;;;23.64;100.00
9421;BME280;4749;51.398;5.466;2023-08-01T10:04:32;99857.91;;;23.61;100.00
9421;BME280;4749;51.398;5.466;2023-08-01T10:07:08;99869.38;;;23.63;100.00
9421;BME280;4749;51.398;5.466;2023-08-01T10:09:39;99882.13;;;23.86;100.00
9421;BME280;4749;51.398;5.466;2023-08-01T10:12:08;99875.53;;;24.17;100.00
9421;BME280;4749;51.398;5.466;2023-08-01T10:14:37;99876.22;;;24.33;100.00
9421;BME280;4749;51.398;5.466;2023-08-01T10:17:05;99876.00;;;24.36;100.00
9421;BME280;4749;51.398;5.466;2023-08-01T10:19:32;99891.53;;;24.06;100.00
9421;BME280;4749;51.398;5.466;2023-08-01T10:22:01;99885.75;;;23.72;100.00
9421;BME280;4749;51.398;5.466;2023-08-01T10:24:29;99884.81;;;23.59;100.00
9421;BME280;4749;51.398;5.466;2023-08-01T10:26:56;99885.88;;;23.56;100.00
9421;BME280;4749;51.398;5.466;2023-08-01T10:29:35;99893.06;;;23.56;100.00
9421;BME280;4749;51.398;5.466;2023-08-01T10:32:03;99879.41;;;23.46;100.00
9421;BME280;4749;51.398;5.466;2023-08-01T10:34:33;99884.41;;;23.38;100.00
9421;BME280;4749;51.398;5.466;2023-08-01T10:37:00;99893.00;;;23.43;100.00
9421;BME280;4749;51.398;5.466;2023-08-01T10:39:28;99895.38;;;24.02;100.00
9421;BME280;4749;51.398;5.466;2023-08-01T10:42:05;99898.25;;;24.51;100.00
9421;BME280;4749;51.398;5.466;2023-08-01T10:44:33;99894.66;;;25.02;100.00
9421;BME280;4749;51.398;5.466;2023-08-01T10:47:04;99901.34;;;25.45;100.00
9421;BME280;4749;51.398;5.466;2023-08-01T10:49:39;99909.59;;;26.03;100.00
9421;BME280;4749;51.398;5.466;2023-08-01T10:52:22;99900.38;;;26.29;100.00
9421;BME280;4749;51.398;5.466;2023-08-01T10:54:57;99910.69;;;26.35;100.00
9421;BME280;4749;51.398;5.466;2023-08-01T10:57:29;99913.81;;;26.42;100.00
9421;BME280;4749;51.398;5.466;2023-08-01T10:59:58;99909.94;;;26.33;100.00
9421;BME280;4749;51.398;5.466;2023-08-01T11:02:27;99926.13;;;26.33;100.00
9421;BME280;4749;51.398;5.466;2023-08-01T11:05:00;99921.06;;;26.29;100.00
9421;BME280;4749;51.398;5.466;2023-08-01T11:07:27;99927.16;;;26.20;100.00
9421;BME280;4749;51.398;5.466;2023-08-01T11:10:10;99920.75;;;25.98;100.00
9421;BME280;4749;51.398;5.466;2023-08-01T11:12:40;99924.66;;;25.58;100.00
9421;BME280;4749;51.398;5.466;2023-08-01T11:15:10;99923.38;;;25.14;100.00
9421;BME280;4749;51.398;5.466;2023-08-01T11:17:43;99921.16;;;24.82;100.00
9421;BME280;4749;51.398;5.466;2023-08-01T11:20:14;99915.56;;;24.60;100.00
9421;BME280;4749;51.398;5.466;2023-08-01T11:23:01;99917.06;;;24.51;100.00
9421;BME280;4749;51.398;5.466;2023-08-01T11:25:43;99918.13;;;24.36;100.00
9421;BME280;4749;51.398;5.466;2023-08-01T11:28:15;99909.22;;;24.48;100.00
9421;BME280;4749;51.398;5.466;2023-08-01T11:30:43;99926.50;;;24.69;100.00
9421;BME280;4749;51.398;5.466;2023-08-01T11:33:19;99927.69;;;25.04;100.00
9421;BME280;4749;51.398;5.466;2023-08-01T11:35:55;99919.19;;;25.10;100.00
9421;BME280;4749;51.398;5.466;2023-08-01T11:38:26;99936.94;;;24.99;100.00
9421;BME280;4749;51.398;5.466;2023-08-01T11:41:00;99930.13;;;25.32;100.00
9421;BME280;4749;51.398;5.466;2023-08-01T11:43:41;99943.38;;;25.59;100.00
9421;BME280;4749;51.398;5.466;2023-08-01T11:46:11;99952.06;;;25.75;100.00
9421;BME280;4749;51.398;5.466;2023-08-01T11:48:38;99955.66;;;25.87;100.00
9421;BME280;4749;51.398;5.466;2023-08-01T11:51:06;99953.84;;;25.88;100.00
9421;BME280;4749;51.398;5.466;2023-08-01T11:53:33;99962.41;;;25.81;99.83
9421;BME280;4749;51.398;5.466;2023-08-01T11:56:06;99968.09;;;25.64;95.61
9421;BME280;4749;51.398;5.466;2023-08-01T11:58:35;99950.69;;;25.33;98.93
9421;BME280;4749;51.398;5.466;2023-08-01T12:01:12;99956.19;;;24.93;100.00
9421;BME280;4749;51.398;5.466;2023-08-01T12:03:51;99946.84;;;24.74;100.00
9421;BME280;4749;51.398;5.466;2023-08-01T12:06:21;99952.97;;;24.50;100.00
9421;BME280;4749;51.398;5.466;2023-08-01T12:08:51;99944.22;;;24.47;100.00
9421;BME280;4749;51.398;5.466;2023-08-01T12:11:26;99955.41;;;24.53;100.00
9421;BME280;4749;51.398;5.466;2023-08-01T12:14:20;99945.00;;;24.87;100.00
9421;BME280;4749;51.398;5.466;2023-08-01T12:16:47;99955.75;;;25.12;100.00
9421;BME280;4749;51.398;5.466;2023-08-01T12:19:19;99963.19;;;25.09;100.00
9421;BME280;4749;51.398;5.466;2023-08-01T12:21:48;99966.41;;;25.14;100.00
9421;BME280;4749;51.398;5.466;2023-08-01T12:24:15;99957.34;;;25.27;100.00
9421;BME280;4749;51.398;5.466;2023-08-01T12:26:42;99964.91;;;25.22;100.00
9421;BME280;4749;51.398;5.466;2023-08-01T12:29:10;99965.88;;;25.09;100.00
9421;BME280;4749;51.398;5.466;2023-08-01T12:31:39;99965.84;;;25.21;99.77
9421;BME280;4749;51.398;5.466;2023-08-01T12:34:06;99967.59;;;25.59;95.54
9421;BME280;4749;51.398;5.466;2023-08-01T12:36:33;99958.66;;;25.95;96.10
9421;BME280;4749;51.398;5.466;2023-08-01T12:39:00;99949.56;;;26.20;96.13
9421;BME280;4749;51.398;5.466;2023-08-01T12:41:28;99961.03;;;26.35;95.57
9421;BME280;4749;51.398;5.466;2023-08-01T12:43:55;99960.81;;;26.38;95.29
9421;BME280;4749;51.398;5.466;2023-08-01T12:46:22;99952.66;;;25.92;99.54
9421;BME280;4749;51.398;5.466;2023-08-01T12:48:49;99968.28;;;25.37;100.00
9421;BME280;4749;51.398;5.466;2023-08-01T12:51:16;99962.31;;;24.95;100.00
9421;BME280;4749;51.398;5.466;2023-08-01T12:53:44;99948.69;;;24.73;100.00
9421;BME280;4749;51.398;5.466;2023-08-01T12:56:11;99953.19;;;24.47;100.00
9421;BME280;4749;51.398;5.466;2023-08-01T12:58:38;99966.69;;;24.06;100.00
9421;BME280;4749;51.398;5.466;2023-08-01T13:01:06;99955.25;;;23.90;100.00
9421;BME280;4749;51.398;5.466;2023-08-01T13:03:33;99974.06;;;23.90;100.00
9421;BME280;4749;51.398;5.466;2023-08-01T13:06:00;99963.75;;;23.69;100.00
9421;BME280;4749;51.398;5.466;2023-08-01T13:08:28;99965.38;;;23.57;100.00
9421;BME280;4749;51.398;5.466;2023-08-01T13:10:56;99960.97;;;23.71;100.00
9421;BME280;4749;51.398;5.466;2023-08-01T13:13:26;99966.75;;;23.92;100.00
9421;BME280;4749;51.398;5.466;2023-08-01T13:15:56;99972.34;;;23.89;100.00
9421;BME280;4749;51.398;5.466;2023-08-01T13:18:23;99970.59;;;23.61;100.00